sensor_id;sensor_type;location;lat;lon;timestamp;pressure;altitude;pressure_sealevel;temperature;humidity
58967;BME280;44744;51.894;5.080;2023-04-08T00:00:08;102400.69;;;8.56;100.00
58967;BME280;44744;51.894;5.080;2023-04-08T00:01:09;102398.41;;;8.55;100.00
58967;BME280;44744;51.894;5.080;2023-04-08T00:02:14;102396.67;;;8.53;100.00
58967;BME280;44744;51.894;5.080;2023-04-08T00:03:14;102396.18;;;8.52;100.00
58967;BME280;44744;51.894;5.080;2023-04-08T00:04:15;102399.04;;;8.50;100.00
58967;BME280;44744;51.894;5.080;2023-04-08T00:05:15;102400.66;;;8.48;100.00
58967;BME280;44744;51.894;5.080;2023-04-08T00:06:15;102398.06;;;8.47;100.00
58967;BME280;44744;51.894;5.080;2023-04-08T00:07:17;102401.43;;;8.46;100.00
58967;BME280;44744;51.894;5.080;2023-04-08T00:08:17;102400.39;;;8.45;100.00
58967;BME280;44744;51.894;5.080;2023-04-08T00:09:17;102400.20;;;8.45;100.00
58967;BME280;44744;51.894;5.080;2023-04-08T00:10:18;102399.33;;;8.46;100.00
58967;BME280;44744;51.894;5.080;2023-04-08T00:11:18;102400.20;;;8.45;100.00
58967;BME280;44744;51.894;5.080;2023-04-08T00:12:19;102402.85;;;8.44;100.00
58967;BME280;44744;51.894;5.080;2023-04-08T00:13:19;102398.98;;;8.44;100.00
58967;BME280;44744;51.894;5.080;2023-04-08T00:14:19;102400.91;;;8.44;100.00
58967;BME280;44744;51.894;5.080;2023-04-08T00:15:20;102399.69;;;8.44;100.00
58967;BME280;44744;51.894;5.080;2023-04-08T00:16:20;102398.82;;;8.43;100.00
58967;BME280;44744;51.894;5.080;2023-04-08T00:17:20;102402.48;;;8.44;100.00
58967;BME280;44744;51.894;5.080;2023-04-08T00:18:20;102400.20;;;8.45;100.00
58967;BME280;44744;51.894;5.080;2023-04-08T00:19:21;102395.80;;;8.45;100.00
58967;BME280;44744;51.894;5.080;2023-04-08T00:20:23;102396.86;;;8.44;100.00
58967;BME280;44744;51.894;5.080;2023-04-08T00:21:23;102394.06;;;8.42;100.00
58967;BME280;44744;51.894;5.080;2023-04-08T00:22:23;102396.05;;;8.40;100.00
58967;BME280;44744;51.894;5.080;2023-04-08T00:23:24;102397.47;;;8.40;100.00
58967;BME280;44744;51.894;5.080;2023-04-08T00:24:24;102397.13;;;8.39;100.00
58967;BME280;44744;51.894;5.080;2023-04-08T00:25:24;102398.89;;;8.39;100.00
58967;BME280;44744;51.894;5.080;2023-04-08T00:26:25;102398.71;;;8.38;100.00
58967;BME280;44744;51.894;5.080;2023-04-08T00:27:25;102398.00;;;8.39;100.00
58967;BME280;44744;51.894;5.080;2023-04-08T00:28:25;102398.89;;;8.40;100.00
58967;BME280;44744;51.894;5.080;2023-04-08T00:29:26;102397.63;;;8.41;100.00
58967;BME280;44744;51.894;5.080;2023-04-08T00:30:26;102398.45;;;8.43;100.00
58967;BME280;44744;51.894;5.080;2023-04-08T00:31:26;102400.91;;;8.45;100.00
58967;BME280;44744;51.894;5.080;2023-04-08T00:32:27;102397.87;;;8.47;100.00
58967;BME280;44744;51.894;5.080;2023-04-08T00:33:28;102395.57;;;8.47;100.00
58967;BME280;44744;51.894;5.080;2023-04-08T00:34:28;102399.27;;;8.48;100.00
58967;BME280;44744;51.894;5.080;2023-04-08T00:35:29;102399.77;;;8.50;100.00
58967;BME280;44744;51.894;5.080;2023-04-08T00:36:29;102398.85;;;8.51;100.00
58967;BME280;44744;51.894;5.080;2023-04-08T00:37:29;102399.58;;;8.50;100.00
58967;BME280;44744;51.894;5.080;2023-04-08T00:38:30;102400.29;;;8.50;100.00
58967;BME280;44744;51.894;5.080;2023-04-08T00:39:30;102398.30;;;8.52;100.00
58967;BME280;44744;51.894;5.080;2023-04-08T00:40:30;102401.08;;;8.54;100.00
58967;BME280;44744;51.894;5.080;2023-04-08T00:41:32;102402.63;;;8.56;100.00
58967;BME280;44744;51.894;5.080;2023-04-08T00:42:32;102401.88;;;8.57;100.00
58967;BME280;44744;51.894;5.080;2023-04-08T00:43:32;102401.20;;;8.57;100.00
58967;BME280;44744;51.894;5.080;2023-04-08T00:44:34;102403.30;;;8.57;100.00
58967;BME280;44744;51.894;5.080;2023-04-08T00:45:34;102401.69;;;8.58;100.00
58967;BME280;44744;51.894;5.080;2023-04-08T00:46:38;102403.98;;;8.58;100.00
58967;BME280;44744;51.894;5.080;2023-04-08T00:47:39;102403.95;;;8.60;100.00
58967;BME280;44744;51.894;5.080;2023-04-08T00:48:39;102407.30;;;8.59;100.00
58967;BME280;44744;51.894;5.080;2023-04-08T00:49:42;102403.26;;;8.59;100.00
58967;BME280;44744;51.894;5.080;2023-04-08T00:50:42;102406.43;;;8.59;100.00
58967;BME280;44744;51.894;5.080;2023-04-08T00:51:43;102404.32;;;8.59;100.00
58967;BME280;44744;51.894;5.080;2023-04-08T00:52:43;102405.54;;;8.60;100.00
58967;BME280;44744;51.894;5.080;2023-04-08T00:53:43;102404.29;;;8.61;100.00
58967;BME280;44744;51.894;5.080;2023-04-08T00:54:44;102403.37;;;8.62;100.00
58967;BME280;44744;51.894;5.080;2023-04-08T00:55:45;102405.45;;;8.64;100.00
58967;BME280;44744;51.894;5.080;2023-04-08T00:56:46;102404.20;;;8.64;100.00
58967;BME280;44744;51.894;5.080;2023-04-08T00:57:47;102403.64;;;8.65;100.00
58967;BME280;44744;51.894;5.080;2023-04-08T00:58:48;102402.92;;;8.66;100.00
58967;BME280;44744;51.894;5.080;2023-04-08T00:59:48;102405.39;;;8.66;100.00
58967;BME280;44744;51.894;5.080;2023-04-08T01:00:54;102397.95;;;8.67;100.00
58967;BME280;44744;51.894;5.080;2023-04-08T01:03:17;102408.35;;;8.68;100.00
58967;BME280;44744;51.894;5.080;2023-04-08T01:05:06;102408.00;;;8.68;100.00
58967;BME280;44744;51.894;5.080;2023-04-08T01:06:18;102410.34;;;8.67;100.00
58967;BME280;44744;51.894;5.080;2023-04-08T01:07:27;102410.02;;;8.65;100.00
58967;BME280;44744;51.894;5.080;2023-04-08T01:08:29;102408.25;;;8.65;100.00
58967;BME280;44744;51.894;5.080;2023-04-08T01:09:32;102407.39;;;8.64;100.00
58967;BME280;44744;51.894;5.080;2023-04-08T01:10:35;102407.21;;;8.64;100.00
58967;BME280;44744;51.894;5.080;2023-04-08T01:11:41;102408.42;;;8.65;100.00
58967;BME280;44744;51.894;5.080;2023-04-08T01:12:50;102411.61;;;8.64;100.00
58967;BME280;44744;51.894;5.080;2023-04-08T01:13:53;102415.30;;;8.65;100.00
58967;BME280;44744;51.894;5.080;2023-04-08T01:15:06;102415.09;;;8.66;100.00
58967;BME280;44744;51.894;5.080;2023-04-08T01:16:09;102415.98;;;8.66;100.00
58967;BME280;44744;51.894;5.080;2023-04-08T01:17:11;102413.30;;;8.68;100.00
58967;BME280;44744;51.894;5.080;2023-04-08T01:18:13;102413.26;;;8.70;100.00
58967;BME280;44744;51.894;5.080;2023-04-08T01:19:24;102412.52;;;8.71;100.00
58967;BME280;44744;51.894;5.080;2023-04-08T01:20:27;102414.95;;;8.73;100.00
58967;BME280;44744;51.894;5.080;2023-04-08T01:21:29;102416.69;;;8.74;100.00
58967;BME280;44744;51.894;5.080;2023-04-08T01:22:43;102413.84;;;8.75;100.00
58967;BME280;44744;51.894;5.080;2023-04-08T01:23:52;102414.00;;;8.76;100.00
58967;BME280;44744;51.894;5.080;2023-04-08T01:25:00;102413.62;;;8.77;100.00
58967;BME280;44744;51.894;5.080;2023-04-08T01:26:01;102412.52;;;8.79;100.00
58967;BME280;44744;51.894;5.080;2023-04-08T01:27:02;102409.32;;;8.80;100.00
58967;BME280;44744;51.894;5.080;2023-04-08T01:28:14;102412.98;;;8.82;100.00
58967;BME280;44744;51.894;5.080;2023-04-08T01:29:16;102413.14;;;8.83;100.00
58967;BME280;44744;51.894;5.080;2023-04-08T01:30:18;102412.95;;;8.83;100.00
58967;BME280;44744;51.894;5.080;2023-04-08T01:31:20;102412.92;;;8.85;100.00
58967;BME280;44744;51.894;5.080;2023-04-08T01:32:21;102413.95;;;8.86;100.00
58967;BME280;44744;51.894;5.080;2023-04-08T01:33:22;102414.64;;;8.87;100.00
58967;BME280;44744;51.894;5.080;2023-04-08T01:34:24;102411.60;;;8.88;100.00
58967;BME280;44744;51.894;5.080;2023-04-08T01:35:25;102409.96;;;8.91;100.00
58967;BME280;44744;51.894;5.080;2023-04-08T01:36:27;102412.66;;;8.88;100.00
58967;BME280;44744;51.894;5.080;2023-04-08T01:37:29;102410.72;;;8.88;100.00
58967;BME280;44744;51.894;5.080;2023-04-08T01:38:30;102411.39;;;8.91;100.00
58967;BME280;44744;51.894;5.080;2023-04-08T01:39:31;102409.60;;;8.91;100.00
58967;BME280;44744;51.894;5.080;2023-04-08T01:40:34;102407.29;;;8.92;100.00
58967;BME280;44744;51.894;5.080;2023-04-08T01:41:35;102412.04;;;8.93;100.00
58967;BME280;44744;51.894;5.080;2023-04-08T01:42:36;102412.24;;;8.91;100.00
58967;BME280;44744;51.894;5.080;2023-04-08T01:43:41;102411.55;;;8.91;100.00
58967;BME280;44744;51.894;5.080;2023-04-08T01:44:42;102411.72;;;8.91;100.00
58967;BME280;44744;51.894;5.080;2023-04-08T01:45:45;102410.30;;;8.92;100.00
58967;BME280;44744;51.894;5.080;2023-04-08T01:46:46;102412.39;;;8.93;100.00
58967;BME280;44744;51.894;5.080;2023-04-08T01:47:48;102411.83;;;8.94;100.00
58967;BME280;44744;51.894;5.080;2023-04-08T01:48:49;102413.20;;;8.96;100.00
58967;BME280;44744;51.894;5.080;2023-04-08T01:49:51;102416.38;;;8.96;100.00
58967;BME280;44744;51.894;5.080;2023-04-08T01:50:52;102416.73;;;8.96;100.00
58967;BME280;44744;51.894;5.080;2023-04-08T01:51:53;102419.35;;;8.97;100.00
58967;BME280;44744;51.894;5.080;2023-04-08T01:52:58;102419.06;;;8.94;100.00
58967;BME280;44744;51.894;5.080;2023-04-08T01:53:59;102418.73;;;8.94;100.00
58967;BME280;44744;51.894;5.080;2023-04-08T01:54:59;102421.69;;;8.95;100.00
58967;BME280;44744;51.894;5.080;2023-04-08T01:56:11;102418.67;;;8.96;100.00
58967;BME280;44744;51.894;5.080;2023-04-08T01:57:21;102419.39;;;8.95;100.00
58967;BME280;44744;51.894;5.080;2023-04-08T01:58:23;102422.21;;;8.95;100.00
58967;BME280;44744;51.894;5.080;2023-04-08T01:59:29;102423.27;;;8.96;100.00
58967;BME280;44744;51.894;5.080;2023-04-08T02:00:30;102424.17;;;8.95;100.00
58967;BME280;44744;51.894;5.080;2023-04-08T02:01:32;102423.85;;;8.94;100.00
58967;BME280;44744;51.894;5.080;2023-04-08T02:02:35;102418.73;;;8.93;100.00
58967;BME280;44744;51.894;5.080;2023-04-08T02:03:37;102421.91;;;8.93;100.00
58967;BME280;44744;51.894;5.080;2023-04-08T02:04:38;102421.89;;;8.94;100.00
58967;BME280;44744;51.894;5.080;2023-04-08T02:05:39;102422.44;;;8.93;100.00
58967;BME280;44744;51.894;5.080;2023-04-08T02:06:39;102422.48;;;8.91;100.00
58967;BME280;44744;51.894;5.080;2023-04-08T02:07:40;102423.92;;;8.90;100.00
58967;BME280;44744;51.894;5.080;2023-04-08T02:08:40;102422.17;;;8.88;100.00
58967;BME280;44744;51.894;5.080;2023-04-08T02:09:40;102420.96;;;8.88;100.00
58967;BME280;44744;51.894;5.080;2023-04-08T02:10:41;102427.16;;;8.87;100.00
58967;BME280;44744;51.894;5.080;2023-04-08T02:11:41;102421.77;;;8.84;100.00
58967;BME280;44744;51.894;5.080;2023-04-08T02:12:42;102423.39;;;8.83;100.00
58967;BME280;44744;51.894;5.080;2023-04-08T02:13:43;102426.59;;;8.81;100.00
58967;BME280;44744;51.894;5.080;2023-04-08T02:14:43;102424.70;;;8.79;100.00
58967;BME280;44744;51.894;5.080;2023-04-08T02:15:55;102425.11;;;8.76;100.00
58967;BME280;44744;51.894;5.080;2023-04-08T02:17:01;102428.55;;;8.72;100.00
58967;BME280;44744;51.894;5.080;2023-04-08T02:18:08;102428.48;;;8.67;100.00
58967;BME280;44744;51.894;5.080;2023-04-08T02:19:24;102433.64;;;8.65;100.00
58967;BME280;44744;51.894;5.080;2023-04-08T02:20:37;102429.99;;;8.62;100.00
58967;BME280;44744;51.894;5.080;2023-04-08T02:21:43;102428.46;;;8.60;100.00
58967;BME280;44744;51.894;5.080;2023-04-08T02:23:05;102432.70;;;8.59;100.00
58967;BME280;44744;51.894;5.080;2023-04-08T02:24:07;102433.80;;;8.58;100.00
58967;BME280;44744;51.894;5.080;2023-04-08T02:25:14;102432.95;;;8.56;100.00
58967;BME280;44744;51.894;5.080;2023-04-08T02:26:16;102432.08;;;8.56;100.00
58967;BME280;44744;51.894;5.080;2023-04-08T02:27:17;102434.39;;;8.54;100.00
58967;BME280;44744;51.894;5.080;2023-04-08T02:28:18;102437.58;;;8.54;100.00
58967;BME280;44744;51.894;5.080;2023-04-08T02:29:19;102435.29;;;8.53;100.00
58967;BME280;44744;51.894;5.080;2023-04-08T02:30:20;102435.64;;;8.53;100.00
58967;BME280;44744;51.894;5.080;2023-04-08T02:31:21;102432.45;;;8.54;100.00
58967;BME280;44744;51.894;5.080;2023-04-08T02:32:23;102437.77;;;8.54;100.00
58967;BME280;44744;51.894;5.080;2023-04-08T02:33:25;102436.01;;;8.53;100.00
58967;BME280;44744;51.894;5.080;2023-04-08T02:34:29;102441.46;;;8.54;100.00
58967;BME280;44744;51.894;5.080;2023-04-08T02:35:30;102440.20;;;8.55;100.00
58967;BME280;44744;51.894;5.080;2023-04-08T02:36:31;102440.56;;;8.55;100.00
58967;BME280;44744;51.894;5.080;2023-04-08T02:37:32;102441.45;;;8.55;100.00
58967;BME280;44744;51.894;5.080;2023-04-08T02:38:33;102443.89;;;8.56;100.00
58967;BME280;44744;51.894;5.080;2023-04-08T02:39:33;102440.36;;;8.56;100.00
58967;BME280;44744;51.894;5.080;2023-04-08T02:40:34;102439.16;;;8.54;100.00
58967;BME280;44744;51.894;5.080;2023-04-08T02:41:34;102442.76;;;8.50;100.00
58967;BME280;44744;51.894;5.080;2023-04-08T02:42:35;102445.49;;;8.46;100.00
58967;BME280;44744;51.894;5.080;2023-04-08T02:43:35;102447.01;;;8.40;100.00
58967;BME280;44744;51.894;5.080;2023-04-08T02:44:35;102445.55;;;8.33;100.00
58967;BME280;44744;51.894;5.080;2023-04-08T02:45:43;102447.25;;;8.28;100.00
58967;BME280;44744;51.894;5.080;2023-04-08T02:46:43;102447.15;;;8.24;100.00
58967;BME280;44744;51.894;5.080;2023-04-08T02:47:43;102451.65;;;8.19;100.00
58967;BME280;44744;51.894;5.080;2023-04-08T02:48:44;102450.80;;;8.18;100.00
58967;BME280;44744;51.894;5.080;2023-04-08T02:49:44;102452.21;;;8.17;100.00
58967;BME280;44744;51.894;5.080;2023-04-08T02:50:44;102453.28;;;8.16;100.00
58967;BME280;44744;51.894;5.080;2023-04-08T02:51:44;102451.19;;;8.15;100.00
58967;BME280;44744;51.894;5.080;2023-04-08T02:52:45;102448.95;;;8.13;100.00
58967;BME280;44744;51.894;5.080;2023-04-08T02:53:45;102448.96;;;8.11;100.00
58967;BME280;44744;51.894;5.080;2023-04-08T02:54:45;102447.08;;;8.10;100.00
58967;BME280;44744;51.894;5.080;2023-04-08T02:55:46;102448.83;;;8.09;100.00
58967;BME280;44744;51.894;5.080;2023-04-08T02:56:46;102449.17;;;8.10;100.00
58967;BME280;44744;51.894;5.080;2023-04-08T02:57:47;102450.41;;;8.10;100.00
58967;BME280;44744;51.894;5.080;2023-04-08T02:58:47;102449.05;;;8.08;100.00
58967;BME280;44744;51.894;5.080;2023-04-08T02:59:48;102452.10;;;8.05;100.00
58967;BME280;44744;51.894;5.080;2023-04-08T03:00:48;102453.72;;;8.03;100.00
58967;BME280;44744;51.894;5.080;2023-04-08T03:01:48;102452.48;;;8.02;100.00
58967;BME280;44744;51.894;5.080;2023-04-08T03:02:48;102453.58;;;8.00;100.00
58967;BME280;44744;51.894;5.080;2023-04-08T03:03:51;102458.71;;;7.99;100.00
58967;BME280;44744;51.894;5.080;2023-04-08T03:04:51;102455.94;;;7.97;100.00
58967;BME280;44744;51.894;5.080;2023-04-08T03:05:52;102455.60;;;7.96;100.00
58967;BME280;44744;51.894;5.080;2023-04-08T03:06:52;102452.80;;;7.95;100.00
58967;BME280;44744;51.894;5.080;2023-04-08T03:07:55;102455.98;;;7.95;100.00
58967;BME280;44744;51.894;5.080;2023-04-08T03:08:56;102456.57;;;7.91;100.00
58967;BME280;44744;51.894;5.080;2023-04-08T03:09:56;102461.19;;;7.89;100.00
58967;BME280;44744;51.894;5.080;2023-04-08T03:10:57;102459.44;;;7.88;100.00
58967;BME280;44744;51.894;5.080;2023-04-08T03:11:57;102461.91;;;7.88;100.00
58967;BME280;44744;51.894;5.080;2023-04-08T03:12:58;102463.85;;;7.88;100.00
58967;BME280;44744;51.894;5.080;2023-04-08T03:13:59;102464.05;;;7.86;100.00
58967;BME280;44744;51.894;5.080;2023-04-08T03:14:59;102463.00;;;7.85;100.00
58967;BME280;44744;51.894;5.080;2023-04-08T03:16:00;102461.25;;;7.85;100.00
58967;BME280;44744;51.894;5.080;2023-04-08T03:17:00;102461.77;;;7.86;100.00
58967;BME280;44744;51.894;5.080;2023-04-08T03:18:00;102460.52;;;7.87;100.00
58967;BME280;44744;51.894;5.080;2023-04-08T03:19:00;102456.11;;;7.87;100.00
58967;BME280;44744;51.894;5.080;2023-04-08T03:20:01;102460.48;;;7.89;100.00
58967;BME280;44744;51.894;5.080;2023-04-08T03:21:01;102457.14;;;7.88;100.00
58967;BME280;44744;51.894;5.080;2023-04-08T03:22:04;102455.98;;;7.85;100.00
58967;BME280;44744;51.894;5.080;2023-04-08T03:23:05;102457.27;;;7.82;100.00
58967;BME280;44744;51.894;5.080;2023-04-08T03:24:05;102458.75;;;7.78;100.00
58967;BME280;44744;51.894;5.080;2023-04-08T03:25:06;102458.05;;;7.77;100.00
58967;BME280;44744;51.894;5.080;2023-04-08T03:26:06;102456.83;;;7.76;100.00
58967;BME280;44744;51.894;5.080;2023-04-08T03:27:06;102455.42;;;7.76;100.00
58967;BME280;44744;51.894;5.080;2023-04-08T03:28:07;102455.42;;;7.77;100.00
58967;BME280;44744;51.894;5.080;2023-04-08T03:29:07;102452.98;;;7.75;100.00
58967;BME280;44744;51.894;5.080;2023-04-08T03:30:07;102451.84;;;7.70;100.00
58967;BME280;44744;51.894;5.080;2023-04-08T03:31:09;102454.19;;;7.67;100.00
58967;BME280;44744;51.894;5.080;2023-04-08T03:32:09;102453.16;;;7.64;100.00
58967;BME280;44744;51.894;5.080;2023-04-08T03:33:09;102453.40;;;7.61;100.00
58967;BME280;44744;51.894;5.080;2023-04-08T03:34:10;102456.60;;;7.59;100.00
58967;BME280;44744;51.894;5.080;2023-04-08T03:35:10;102458.90;;;7.59;100.00
58967;BME280;44744;51.894;5.080;2023-04-08T03:36:11;102458.88;;;7.59;100.00
58967;BME280;44744;51.894;5.080;2023-04-08T03:37:11;102457.31;;;7.58;100.00
58967;BME280;44744;51.894;5.080;2023-04-08T03:38:11;102457.70;;;7.56;100.00
58967;BME280;44744;51.894;5.080;2023-04-08T03:39:12;102458.44;;;7.55;100.00
58967;BME280;44744;51.894;5.080;2023-04-08T03:40:13;102458.81;;;7.53;100.00
58967;BME280;44744;51.894;5.080;2023-04-08T03:41:13;102457.95;;;7.51;100.00
58967;BME280;44744;51.894;5.080;2023-04-08T03:42:13;102460.95;;;7.51;100.00
58967;BME280;44744;51.894;5.080;2023-04-08T03:43:14;102461.69;;;7.49;100.00
58967;BME280;44744;51.894;5.080;2023-04-08T03:44:14;102462.98;;;7.45;100.00
58967;BME280;44744;51.894;5.080;2023-04-08T03:45:14;102463.57;;;7.41;100.00
58967;BME280;44744;51.894;5.080;2023-04-08T03:46:15;102464.36;;;7.36;100.00
58967;BME280;44744;51.894;5.080;2023-04-08T03:47:15;102465.71;;;7.28;100.00
58967;BME280;44744;51.894;5.080;2023-04-08T03:48:15;102463.52;;;7.21;100.00
58967;BME280;44744;51.894;5.080;2023-04-08T03:49:15;102464.15;;;7.14;100.00
58967;BME280;44744;51.894;5.080;2023-04-08T03:50:16;102464.79;;;7.08;100.00
58967;BME280;44744;51.894;5.080;2023-04-08T03:51:16;102468.91;;;7.02;100.00
58967;BME280;44744;51.894;5.080;2023-04-08T03:52:17;102467.61;;;6.94;100.00
58967;BME280;44744;51.894;5.080;2023-04-08T03:53:17;102467.18;;;6.87;100.00
58967;BME280;44744;51.894;5.080;2023-04-08T03:54:17;102465.80;;;6.84;100.00
58967;BME280;44744;51.894;5.080;2023-04-08T03:55:18;102467.06;;;6.83;100.00
58967;BME280;44744;51.894;5.080;2023-04-08T03:56:18;102468.45;;;6.84;100.00
58967;BME280;44744;51.894;5.080;2023-04-08T03:57:18;102475.11;;;6.86;100.00
58967;BME280;44744;51.894;5.080;2023-04-08T03:58:19;102477.05;;;6.86;100.00
58967;BME280;44744;51.894;5.080;2023-04-08T03:59:19;102477.03;;;6.87;100.00
58967;BME280;44744;51.894;5.080;2023-04-08T04:00:19;102472.80;;;6.89;100.00
58967;BME280;44744;51.894;5.080;2023-04-08T04:01:19;102477.34;;;6.90;100.00
58967;BME280;44744;51.894;5.080;2023-04-08T04:02:20;102475.94;;;6.90;100.00
58967;BME280;44744;51.894;5.080;2023-04-08T04:03:20;102478.40;;;6.90;100.00
58967;BME280;44744;51.894;5.080;2023-04-08T04:04:20;102484.93;;;6.89;100.00
58967;BME280;44744;51.894;5.080;2023-04-08T04:05:21;102487.20;;;6.89;100.00
58967;BME280;44744;51.894;5.080;2023-04-08T04:06:21;102489.12;;;6.90;100.00
58967;BME280;44744;51.894;5.080;2023-04-08T04:07:21;102494.77;;;6.89;100.00
58967;BME280;44744;51.894;5.080;2023-04-08T04:08:22;102494.61;;;6.88;100.00
58967;BME280;44744;51.894;5.080;2023-04-08T04:09:22;102499.02;;;6.86;100.00
58967;BME280;44744;51.894;5.080;2023-04-08T04:10:22;102493.95;;;6.85;100.00
58967;BME280;44744;51.894;5.080;2023-04-08T04:11:23;102492.86;;;6.86;100.00
58967;BME280;44744;51.894;5.080;2023-04-08T04:12:23;102495.33;;;6.86;100.00
58967;BME280;44744;51.894;5.080;2023-04-08T04:13:23;102496.96;;;6.83;100.00
58967;BME280;44744;51.894;5.080;2023-04-08T04:14:24;102497.50;;;6.82;100.00
58967;BME280;44744;51.894;5.080;2023-04-08T04:15:24;102497.85;;;6.81;100.00
58967;BME280;44744;51.894;5.080;2023-04-08T04:16:24;102491.73;;;6.79;100.00
58967;BME280;44744;51.894;5.080;2023-04-08T04:17:24;102493.20;;;6.74;100.00
58967;BME280;44744;51.894;5.080;2023-04-08T04:18:25;102495.14;;;6.74;100.00
58967;BME280;44744;51.894;5.080;2023-04-08T04:19:29;102494.44;;;6.74;100.00
58967;BME280;44744;51.894;5.080;2023-04-08T04:20:30;102498.10;;;6.76;100.00
58967;BME280;44744;51.894;5.080;2023-04-08T04:21:30;102498.44;;;6.78;100.00
58967;BME280;44744;51.894;5.080;2023-04-08T04:22:31;102497.89;;;6.79;100.00
58967;BME280;44744;51.894;5.080;2023-04-08T04:23:31;102497.17;;;6.80;100.00
58967;BME280;44744;51.894;5.080;2023-04-08T04:24:32;102501.38;;;6.82;100.00
58967;BME280;44744;51.894;5.080;2023-04-08T04:25:32;102502.27;;;6.80;100.00
58967;BME280;44744;51.894;5.080;2023-04-08T04:26:32;102504.27;;;6.74;100.00
58967;BME280;44744;51.894;5.080;2023-04-08T04:27:32;102507.90;;;6.65;100.00
58967;BME280;44744;51.894;5.080;2023-04-08T04:28:33;102505.72;;;6.57;100.00
58967;BME280;44744;51.894;5.080;2023-04-08T04:29:33;102508.08;;;6.51;100.00
58967;BME280;44744;51.894;5.080;2023-04-08T04:30:37;102507.04;;;6.49;100.00
58967;BME280;44744;51.894;5.080;2023-04-08T04:31:38;102510.88;;;6.51;100.00
58967;BME280;44744;51.894;5.080;2023-04-08T04:32:38;102515.45;;;6.52;100.00
58967;BME280;44744;51.894;5.080;2023-04-08T04:33:38;102517.01;;;6.54;100.00
58967;BME280;44744;51.894;5.080;2023-04-08T04:34:39;102517.52;;;6.54;100.00
58967;BME280;44744;51.894;5.080;2023-04-08T04:35:39;102517.01;;;6.54;100.00
58967;BME280;44744;51.894;5.080;2023-04-08T04:36:39;102517.91;;;6.52;100.00
58967;BME280;44744;51.894;5.080;2023-04-08T04:37:40;102521.42;;;6.52;100.00
58967;BME280;44744;51.894;5.080;2023-04-08T04:38:40;102522.31;;;6.52;100.00
58967;BME280;44744;51.894;5.080;2023-04-08T04:39:40;102523.52;;;6.52;100.00
58967;BME280;44744;51.894;5.080;2023-04-08T04:40:41;102524.41;;;6.52;100.00
58967;BME280;44744;51.894;5.080;2023-04-08T04:41:41;102523.38;;;6.51;100.00
58967;BME280;44744;51.894;5.080;2023-04-08T04:42:41;102526.53;;;6.51;100.00
58967;BME280;44744;51.894;5.080;2023-04-08T04:43:42;102525.83;;;6.50;100.00
58967;BME280;44744;51.894;5.080;2023-04-08T04:44:42;102526.71;;;6.51;100.00
58967;BME280;44744;51.894;5.080;2023-04-08T04:45:43;102528.80;;;6.51;100.00
58967;BME280;44744;51.894;5.080;2023-04-08T04:46:43;102530.56;;;6.52;100.00
58967;BME280;44744;51.894;5.080;2023-04-08T04:47:43;102529.14;;;6.53;100.00
58967;BME280;44744;51.894;5.080;2023-04-08T04:48:43;102534.40;;;6.54;100.00
58967;BME280;44744;51.894;5.080;2023-04-08T04:49:44;102534.04;;;6.56;100.00
58967;BME280;44744;51.894;5.080;2023-04-08T04:50:44;102530.86;;;6.56;100.00
58967;BME280;44744;51.894;5.080;2023-04-08T04:51:53;102532.97;;;6.56;100.00
58967;BME280;44744;51.894;5.080;2023-04-08T04:52:53;102535.09;;;6.55;100.00
58967;BME280;44744;51.894;5.080;2023-04-08T04:53:53;102537.21;;;6.55;100.00
58967;BME280;44744;51.894;5.080;2023-04-08T04:54:53;102537.21;;;6.54;100.00
58967;BME280;44744;51.894;5.080;2023-04-08T04:55:54;102538.80;;;6.54;100.00
58967;BME280;44744;51.894;5.080;2023-04-08T04:56:54;102537.05;;;6.54;100.00
58967;BME280;44744;51.894;5.080;2023-04-08T04:57:54;102533.87;;;6.54;100.00
58967;BME280;44744;51.894;5.080;2023-04-08T04:58:55;102536.70;;;6.53;100.00
58967;BME280;44744;51.894;5.080;2023-04-08T04:59:55;102534.26;;;6.52;100.00
58967;BME280;44744;51.894;5.080;2023-04-08T05:00:55;102535.13;;;6.52;100.00
58967;BME280;44744;51.894;5.080;2023-04-08T05:01:56;102536.00;;;6.53;100.00
58967;BME280;44744;51.894;5.080;2023-04-08T05:02:56;102537.39;;;6.54;100.00
58967;BME280;44744;51.894;5.080;2023-04-08T05:03:56;102537.73;;;6.56;100.00
58967;BME280;44744;51.894;5.080;2023-04-08T05:04:57;102540.52;;;6.57;100.00
58967;BME280;44744;51.894;5.080;2023-04-08T05:05:57;102537.01;;;6.58;100.00
58967;BME280;44744;51.894;5.080;2023-04-08T05:07:00;102536.30;;;6.58;100.00
58967;BME280;44744;51.894;5.080;2023-04-08T05:08:00;102540.51;;;6.59;100.00
58967;BME280;44744;51.894;5.080;2023-04-08T05:09:01;102537.84;;;6.61;100.00
58967;BME280;44744;51.894;5.080;2023-04-08T05:11:48;102542.24;;;6.60;100.00
58967;BME280;44744;51.894;5.080;2023-04-08T05:12:48;102545.37;;;6.63;100.00
58967;BME280;44744;51.894;5.080;2023-04-08T05:13:48;102543.44;;;6.62;100.00
58967;BME280;44744;51.894;5.080;2023-04-08T05:14:49;102546.80;;;6.61;100.00
58967;BME280;44744;51.894;5.080;2023-04-08T05:15:49;102546.64;;;6.61;100.00
58967;BME280;44744;51.894;5.080;2023-04-08T05:16:49;102546.48;;;6.58;100.00
58967;BME280;44744;51.894;5.080;2023-04-08T05:17:49;102550.38;;;6.56;100.00
58967;BME280;44744;51.894;5.080;2023-04-08T05:18:50;102548.98;;;6.56;100.00
58967;BME280;44744;51.894;5.080;2023-04-08T05:19:50;102549.84;;;6.57;100.00
58967;BME280;44744;51.894;5.080;2023-04-08T05:20:50;102553.00;;;6.57;100.00
58967;BME280;44744;51.894;5.080;2023-04-08T05:21:50;102552.46;;;6.58;100.00
58967;BME280;44744;51.894;5.080;2023-04-08T05:22:51;102555.81;;;6.58;100.00
58967;BME280;44744;51.894;5.080;2023-04-08T05:23:51;102554.75;;;6.57;100.00
58967;BME280;44744;51.894;5.080;2023-04-08T05:24:51;102556.01;;;6.55;100.00